ABX3104 KRFD-KCVG
Flight info
| Callsign | ABX3104 |
|---|---|
| Flight time | 0h 46m |
| Altitude | 29000 |
| Route | BIXBY1 AHMED ELANR CEGRM8 |
| Aircraft | B763/H-SDE3FGHIJ2J3J5M3RWXY/LB1D1 |
Departure
| Time | 2026-04-28 09:02 |
|---|---|
| Airport | Chicago Rockford International Airport (KRFD) |
Arrival
| Time | 2026-04-28 09:48 |
|---|---|
| Airport | Cincinnati Northern Kentucky International Airport (KCVG) |
| Time | Latitude | Longitude | Altitude | Speed | Heading |
|---|---|---|---|---|---|
| 2026-04-28 08:45 | 42.19619 | -89.11481 | 754 ft | 0 kts | 245° |
| 2026-04-28 08:51 | 42.19620 | -89.11477 | 754 ft | 2 kts | 246° |
| 2026-04-28 08:51 | 42.19625 | -89.11458 | 754 ft | 2 kts | 262° |
| 2026-04-28 08:52 | 42.19626 | -89.11437 | 754 ft | 2 kts | 273° |
| 2026-04-28 08:52 | 42.19625 | -89.11417 | 754 ft | 2 kts | 275° |
| 2026-04-28 08:52 | 42.19622 | -89.11404 | 754 ft | 0 kts | 294° |
| 2026-04-28 08:52 | 42.19619 | -89.11389 | 754 ft | 1 kts | 246° |
| 2026-04-28 08:53 | 42.19628 | -89.11377 | 754 ft | 1 kts | 192° |
| 2026-04-28 08:53 | 42.19636 | -89.11376 | 754 ft | 1 kts | 166° |
| 2026-04-28 08:53 | 42.19639 | -89.11377 | 754 ft | 0 kts | 171° |
| 2026-04-28 08:55 | 42.19638 | -89.11377 | 754 ft | 1 kts | 171° |
| 2026-04-28 08:55 | 42.19620 | -89.11371 | 754 ft | 4 kts | 163° |
| 2026-04-28 08:55 | 42.19576 | -89.11346 | 754 ft | 9 kts | 156° |
| 2026-04-28 08:56 | 42.19513 | -89.11308 | 754 ft | 10 kts | 156° |
| 2026-04-28 08:56 | 42.19449 | -89.11269 | 754 ft | 9 kts | 156° |
| 2026-04-28 08:56 | 42.19414 | -89.11221 | 754 ft | 6 kts | 93° |
| 2026-04-28 08:56 | 42.19435 | -89.11143 | 754 ft | 11 kts | 66° |
| 2026-04-28 08:57 | 42.19479 | -89.11012 | 754 ft | 18 kts | 65° |
| 2026-04-28 08:57 | 42.19543 | -89.10824 | 754 ft | 24 kts | 65° |
| 2026-04-28 08:57 | 42.19614 | -89.10613 | 754 ft | 25 kts | 65° |
| 2026-04-28 08:57 | 42.19689 | -89.10394 | 754 ft | 26 kts | 65° |
| 2026-04-28 08:58 | 42.19768 | -89.10159 | 754 ft | 27 kts | 65° |
| 2026-04-28 08:58 | 42.19850 | -89.09921 | 754 ft | 28 kts | 65° |
| 2026-04-28 08:58 | 42.19933 | -89.09676 | 754 ft | 28 kts | 65° |
| 2026-04-28 08:58 | 42.20016 | -89.09433 | 754 ft | 28 kts | 65° |
| 2026-04-28 08:59 | 42.20099 | -89.09189 | 754 ft | 28 kts | 65° |
| 2026-04-28 08:59 | 42.20180 | -89.08948 | 754 ft | 26 kts | 65° |
| 2026-04-28 08:59 | 42.20238 | -89.08780 | 754 ft | 11 kts | 65° |
| 2026-04-28 08:59 | 42.20248 | -89.08724 | 754 ft | 4 kts | 109° |
| 2026-04-28 09:00 | 42.20222 | -89.08699 | 754 ft | 6 kts | 154° |
| 2026-04-28 09:00 | 42.20180 | -89.08673 | 754 ft | 5 kts | 163° |
| 2026-04-28 09:00 | 42.20153 | -89.08684 | 754 ft | 3 kts | 225° |
| 2026-04-28 09:00 | 42.20143 | -89.08704 | 754 ft | 0 kts | 245° |
| 2026-04-28 09:01 | 42.20114 | -89.08788 | 754 ft | 32 kts | 245° |
| 2026-04-28 09:01 | 42.19942 | -89.09296 | 754 ft | 85 kts | 245° |
| 2026-04-28 09:01 | 42.19627 | -89.10222 | 754 ft | 130 kts | 245° |
| 2026-04-28 09:01 | 42.19193 | -89.11492 | 882 ft | 161 kts | 245° |
| 2026-04-28 09:02 | 42.18738 | -89.12821 | 1639 ft | 154 kts | 247° |
| 2026-04-28 09:02 | 42.18249 | -89.14122 | 2256 ft | 159 kts | 244° |
| 2026-04-28 09:02 | 42.17424 | -89.15202 | 2649 ft | 187 kts | 210° |
| 2026-04-28 09:02 | 42.16019 | -89.15464 | 2938 ft | 225 kts | 182° |
| 2026-04-28 09:03 | 42.14411 | -89.15130 | 3484 ft | 241 kts | 177° |
| 2026-04-28 09:03 | 42.12715 | -89.14716 | 4007 ft | 257 kts | 177° |
| 2026-04-28 09:03 | 42.10932 | -89.14104 | 4595 ft | 276 kts | 166° |
| 2026-04-28 09:03 | 42.09090 | -89.13158 | 5326 ft | 286 kts | 166° |
| 2026-04-28 09:04 | 42.07341 | -89.12320 | 6238 ft | 285 kts | 168° |
| 2026-04-28 09:04 | 42.05483 | -89.11452 | 7092 ft | 288 kts | 168° |
| 2026-04-28 09:04 | 42.03577 | -89.10575 | 7905 ft | 293 kts | 168° |
| 2026-04-28 09:04 | 42.01640 | -89.09691 | 8773 ft | 295 kts | 168° |
| 2026-04-28 09:05 | 41.99678 | -89.08800 | 9580 ft | 300 kts | 168° |
| 2026-04-28 09:05 | 41.97700 | -89.07906 | 10362 ft | 304 kts | 169° |
| 2026-04-28 09:05 | 41.95635 | -89.06980 | 10825 ft | 322 kts | 168° |
| 2026-04-28 09:05 | 41.93460 | -89.06003 | 11291 ft | 339 kts | 168° |
| 2026-04-28 09:06 | 41.91170 | -89.04974 | 11753 ft | 356 kts | 168° |
| 2026-04-28 09:06 | 41.88765 | -89.03890 | 12331 ft | 370 kts | 168° |
| 2026-04-28 09:06 | 41.86297 | -89.02776 | 13188 ft | 374 kts | 168° |
| 2026-04-28 09:06 | 41.83826 | -89.01663 | 14047 ft | 377 kts | 168° |
| 2026-04-28 09:07 | 41.81353 | -89.00554 | 14826 ft | 382 kts | 168° |
| 2026-04-28 09:07 | 41.78801 | -88.99409 | 15657 ft | 386 kts | 168° |
| 2026-04-28 09:07 | 41.76244 | -88.98264 | 16362 ft | 392 kts | 168° |
| 2026-04-28 09:07 | 41.73664 | -88.97107 | 17120 ft | 395 kts | 168° |
| 2026-04-28 09:08 | 41.71045 | -88.95936 | 17880 ft | 399 kts | 168° |
| 2026-04-28 09:08 | 41.68407 | -88.94757 | 18587 ft | 402 kts | 168° |
| 2026-04-28 09:08 | 41.65749 | -88.93570 | 19307 ft | 406 kts | 168° |
| 2026-04-28 09:08 | 41.63044 | -88.92364 | 19987 ft | 409 kts | 168° |
| 2026-04-28 09:09 | 41.60352 | -88.91164 | 20619 ft | 414 kts | 169° |
| 2026-04-28 09:09 | 41.57592 | -88.89927 | 21314 ft | 416 kts | 167° |
| 2026-04-28 09:09 | 41.54919 | -88.88319 | 21909 ft | 430 kts | 157° |
| 2026-04-28 09:09 | 41.52440 | -88.86052 | 22503 ft | 443 kts | 147° |
| 2026-04-28 09:10 | 41.50206 | -88.83135 | 23221 ft | 453 kts | 137° |
| 2026-04-28 09:10 | 41.48309 | -88.79699 | 23636 ft | 468 kts | 126° |
| 2026-04-28 09:10 | 41.46830 | -88.75795 | 24243 ft | 479 kts | 116° |
| 2026-04-28 09:10 | 41.45819 | -88.71539 | 24943 ft | 488 kts | 107° |
| 2026-04-28 09:11 | 41.45155 | -88.67126 | 25309 ft | 499 kts | 105° |
| 2026-04-28 09:11 | 41.44343 | -88.62576 | 26116 ft | 497 kts | 108° |
| 2026-04-28 09:11 | 41.43483 | -88.58140 | 26561 ft | 504 kts | 109° |
| 2026-04-28 09:11 | 41.42553 | -88.53621 | 27126 ft | 508 kts | 110° |
| 2026-04-28 09:12 | 41.41591 | -88.49073 | 27601 ft | 514 kts | 111° |
| 2026-04-28 09:12 | 41.40597 | -88.44476 | 28122 ft | 518 kts | 111° |
| 2026-04-28 09:12 | 41.39582 | -88.39815 | 28679 ft | 523 kts | 111° |
| 2026-04-28 09:12 | 41.38559 | -88.35148 | 28795 ft | 525 kts | 111° |
| 2026-04-28 09:13 | 41.37524 | -88.30447 | 28782 ft | 525 kts | 112° |
| 2026-04-28 09:13 | 41.35487 | -88.21242 | 28773 ft | 520 kts | 112° |
| 2026-04-28 09:14 | 41.33421 | -88.11968 | 28776 ft | 525 kts | 113° |
| 2026-04-28 09:14 | 41.31335 | -88.02636 | 28777 ft | 528 kts | 113° |
| 2026-04-28 09:15 | 41.29234 | -87.93276 | 28777 ft | 522 kts | 113° |
| 2026-04-28 09:15 | 41.27155 | -87.84068 | 28783 ft | 526 kts | 114° |
| 2026-04-28 09:16 | 41.25035 | -87.74710 | 28784 ft | 529 kts | 114° |
| 2026-04-28 09:16 | 41.22890 | -87.65417 | 28757 ft | 520 kts | 117° |
| 2026-04-28 09:17 | 41.19621 | -87.57119 | 28780 ft | 503 kts | 135° |
| 2026-04-28 09:17 | 41.17405 | -87.53566 | 28785 ft | 492 kts | 144° |
| 2026-04-28 09:17 | 41.14875 | -87.50596 | 28777 ft | 477 kts | 154° |
| 2026-04-28 09:17 | 41.12155 | -87.48176 | 28784 ft | 466 kts | 159° |
| 2026-04-28 09:18 | 41.09417 | -87.45946 | 28776 ft | 464 kts | 160° |
| 2026-04-28 09:18 | 41.03831 | -87.41661 | 28774 ft | 465 kts | 161° |
| 2026-04-28 09:19 | 40.98145 | -87.37460 | 28788 ft | 460 kts | 162° |
| 2026-04-28 09:19 | 40.92516 | -87.33369 | 28774 ft | 463 kts | 163° |
| 2026-04-28 09:20 | 40.86846 | -87.29278 | 28789 ft | 462 kts | 162° |
| 2026-04-28 09:20 | 40.81174 | -87.25204 | 28778 ft | 467 kts | 162° |
| 2026-04-28 09:21 | 40.75507 | -87.21137 | 28795 ft | 459 kts | 162° |
| 2026-04-28 09:21 | 40.69827 | -87.17081 | 28786 ft | 466 kts | 162° |
| 2026-04-28 09:22 | 40.64135 | -87.13014 | 28785 ft | 460 kts | 162° |
| 2026-04-28 09:22 | 40.58494 | -87.08997 | 28781 ft | 459 kts | 162° |
| 2026-04-28 09:23 | 40.52816 | -87.05168 | 28799 ft | 458 kts | 165° |
| 2026-04-28 09:23 | 40.47071 | -87.01545 | 28805 ft | 456 kts | 164° |
| 2026-04-28 09:24 | 40.41367 | -86.97952 | 28809 ft | 453 kts | 165° |
| 2026-04-28 09:24 | 40.35636 | -86.94347 | 28599 ft | 452 kts | 164° |
| 2026-04-28 09:24 | 40.32840 | -86.92590 | 28125 ft | 447 kts | 164° |
| 2026-04-28 09:25 | 40.30042 | -86.90829 | 27732 ft | 439 kts | 165° |
| 2026-04-28 09:25 | 40.27323 | -86.89120 | 27377 ft | 432 kts | 165° |
| 2026-04-28 09:25 | 40.24580 | -86.87405 | 26816 ft | 431 kts | 165° |
| 2026-04-28 09:25 | 40.21917 | -86.85738 | 26353 ft | 427 kts | 165° |
| 2026-04-28 09:26 | 40.19236 | -86.84061 | 25914 ft | 423 kts | 165° |
| 2026-04-28 09:26 | 40.16603 | -86.82416 | 25482 ft | 421 kts | 165° |
| 2026-04-28 09:26 | 40.13949 | -86.80762 | 25050 ft | 422 kts | 165° |
| 2026-04-28 09:26 | 40.11311 | -86.79116 | 24619 ft | 421 kts | 165° |
| 2026-04-28 09:27 | 40.06044 | -86.75834 | 23757 ft | 417 kts | 165° |
| 2026-04-28 09:27 | 40.03417 | -86.74138 | 23298 ft | 421 kts | 161° |
| 2026-04-28 09:27 | 40.00988 | -86.71961 | 22878 ft | 434 kts | 150° |
| 2026-04-28 09:28 | 39.98811 | -86.69144 | 22677 ft | 440 kts | 138° |
| 2026-04-28 09:28 | 39.96979 | -86.65855 | 22659 ft | 444 kts | 133° |
| 2026-04-28 09:28 | 39.95199 | -86.62515 | 22617 ft | 454 kts | 133° |
| 2026-04-28 09:28 | 39.93405 | -86.59144 | 22558 ft | 458 kts | 133° |
| 2026-04-28 09:29 | 39.91587 | -86.55714 | 22493 ft | 454 kts | 133° |
| 2026-04-28 09:29 | 39.89911 | -86.52550 | 22428 ft | 450 kts | 132° |
| 2026-04-28 09:29 | 39.88005 | -86.48965 | 22369 ft | 450 kts | 133° |
| 2026-04-28 09:29 | 39.86220 | -86.45613 | 22297 ft | 452 kts | 133° |
| 2026-04-28 09:30 | 39.84416 | -86.42226 | 22217 ft | 453 kts | 132° |
| 2026-04-28 09:30 | 39.82616 | -86.38845 | 22144 ft | 452 kts | 131° |
| 2026-04-28 09:30 | 39.81029 | -86.35330 | 22052 ft | 460 kts | 122° |
| 2026-04-28 09:30 | 39.79683 | -86.31490 | 21606 ft | 468 kts | 121° |
| 2026-04-28 09:31 | 39.78339 | -86.27637 | 21076 ft | 465 kts | 121° |
| 2026-04-28 09:31 | 39.77011 | -86.23806 | 20552 ft | 462 kts | 121° |
| 2026-04-28 09:31 | 39.75701 | -86.20017 | 20040 ft | 459 kts | 121° |
| 2026-04-28 09:31 | 39.74394 | -86.16248 | 19523 ft | 456 kts | 121° |
| 2026-04-28 09:32 | 39.73098 | -86.12507 | 19006 ft | 452 kts | 121° |
| 2026-04-28 09:32 | 39.71812 | -86.08810 | 18496 ft | 449 kts | 121° |
| 2026-04-28 09:32 | 39.70537 | -86.05134 | 18003 ft | 446 kts | 121° |
| 2026-04-28 09:32 | 39.69256 | -86.01453 | 17532 ft | 442 kts | 121° |
| 2026-04-28 09:33 | 39.67992 | -85.97829 | 17046 ft | 438 kts | 121° |
| 2026-04-28 09:33 | 39.66756 | -85.94276 | 16610 ft | 434 kts | 120° |
| 2026-04-28 09:33 | 39.65511 | -85.90716 | 16179 ft | 429 kts | 121° |
| 2026-04-28 09:33 | 39.64286 | -85.87212 | 15757 ft | 425 kts | 120° |
| 2026-04-28 09:34 | 39.63073 | -85.83744 | 15403 ft | 418 kts | 120° |
| 2026-04-28 09:34 | 39.61873 | -85.80325 | 14874 ft | 420 kts | 119° |
| 2026-04-28 09:34 | 39.60709 | -85.76871 | 14679 ft | 411 kts | 116° |
| 2026-04-28 09:34 | 39.59624 | -85.73376 | 14169 ft | 416 kts | 116° |
| 2026-04-28 09:35 | 39.58551 | -85.69943 | 13692 ft | 413 kts | 116° |
| 2026-04-28 09:35 | 39.57464 | -85.66470 | 13227 ft | 411 kts | 116° |
| 2026-04-28 09:35 | 39.56387 | -85.63036 | 12735 ft | 408 kts | 116° |
| 2026-04-28 09:35 | 39.55331 | -85.59676 | 12266 ft | 405 kts | 116° |
| 2026-04-28 09:36 | 39.54274 | -85.56316 | 11810 ft | 402 kts | 115° |
| 2026-04-28 09:36 | 39.53224 | -85.52982 | 11306 ft | 400 kts | 116° |
| 2026-04-28 09:36 | 39.52152 | -85.49637 | 10929 ft | 392 kts | 118° |
| 2026-04-28 09:36 | 39.50790 | -85.46700 | 10888 ft | 370 kts | 130° |
| 2026-04-28 09:37 | 39.49334 | -85.44044 | 10836 ft | 357 kts | 130° |
| 2026-04-28 09:37 | 39.47927 | -85.41465 | 10804 ft | 343 kts | 130° |
| 2026-04-28 09:37 | 39.46577 | -85.39005 | 10783 ft | 330 kts | 131° |
| 2026-04-28 09:37 | 39.45262 | -85.36615 | 10663 ft | 323 kts | 131° |
| 2026-04-28 09:38 | 39.43941 | -85.34229 | 10387 ft | 322 kts | 131° |
| 2026-04-28 09:38 | 39.42654 | -85.31897 | 10153 ft | 318 kts | 131° |
| 2026-04-28 09:38 | 39.41343 | -85.29531 | 9777 ft | 319 kts | 131° |
| 2026-04-28 09:38 | 39.40199 | -85.27032 | 9297 ft | 330 kts | 112° |
| 2026-04-28 09:39 | 39.39536 | -85.24241 | 9105 ft | 324 kts | 109° |
| 2026-04-28 09:39 | 39.38893 | -85.21468 | 8936 ft | 321 kts | 109° |
| 2026-04-28 09:39 | 39.38253 | -85.18666 | 8767 ft | 320 kts | 108° |
| 2026-04-28 09:39 | 39.37632 | -85.15924 | 8582 ft | 317 kts | 109° |
| 2026-04-28 09:40 | 39.37019 | -85.13200 | 8386 ft | 315 kts | 108° |
| 2026-04-28 09:40 | 39.36411 | -85.10493 | 8216 ft | 312 kts | 108° |
| 2026-04-28 09:40 | 39.35804 | -85.07797 | 8044 ft | 314 kts | 108° |
| 2026-04-28 09:40 | 39.35194 | -85.05092 | 7852 ft | 311 kts | 108° |
| 2026-04-28 09:41 | 39.34584 | -85.02380 | 7665 ft | 309 kts | 108° |
| 2026-04-28 09:41 | 39.33980 | -84.99699 | 7475 ft | 311 kts | 108° |
| 2026-04-28 09:41 | 39.33378 | -84.97037 | 7293 ft | 308 kts | 108° |
| 2026-04-28 09:41 | 39.32771 | -84.94344 | 7108 ft | 306 kts | 108° |
| 2026-04-28 09:42 | 39.32123 | -84.91749 | 6894 ft | 307 kts | 116° |
| 2026-04-28 09:42 | 39.31211 | -84.89265 | 6642 ft | 305 kts | 119° |
| 2026-04-28 09:42 | 39.30282 | -84.86781 | 6351 ft | 304 kts | 120° |
| 2026-04-28 09:42 | 39.29363 | -84.84330 | 6097 ft | 302 kts | 119° |
| 2026-04-28 09:43 | 39.28451 | -84.81896 | 5841 ft | 299 kts | 120° |
| 2026-04-28 09:43 | 39.27542 | -84.79482 | 5622 ft | 296 kts | 120° |
| 2026-04-28 09:43 | 39.26634 | -84.77072 | 5250 ft | 299 kts | 120° |
| 2026-04-28 09:43 | 39.25741 | -84.74703 | 5055 ft | 293 kts | 120° |
| 2026-04-28 09:44 | 39.24858 | -84.72360 | 4733 ft | 286 kts | 120° |
| 2026-04-28 09:44 | 39.23989 | -84.70072 | 4387 ft | 279 kts | 124° |
| 2026-04-28 09:44 | 39.22796 | -84.68223 | 4037 ft | 257 kts | 154° |
| 2026-04-28 09:44 | 39.21244 | -84.67326 | 3757 ft | 238 kts | 169° |
| 2026-04-28 09:45 | 39.19662 | -84.66853 | 3459 ft | 222 kts | 185° |
| 2026-04-28 09:45 | 39.18171 | -84.66844 | 3233 ft | 209 kts | 186° |
| 2026-04-28 09:45 | 39.16751 | -84.66824 | 2903 ft | 195 kts | 186° |
| 2026-04-28 09:45 | 39.15446 | -84.66818 | 2636 ft | 177 kts | 185° |
| 2026-04-28 09:46 | 39.14269 | -84.66818 | 2423 ft | 158 kts | 186° |
| 2026-04-28 09:46 | 39.13233 | -84.66819 | 2233 ft | 141 kts | 187° |
| 2026-04-28 09:46 | 39.12261 | -84.66829 | 2029 ft | 140 kts | 186° |
| 2026-04-28 09:46 | 39.11268 | -84.66838 | 1836 ft | 145 kts | 185° |
| 2026-04-28 09:47 | 39.10240 | -84.66846 | 1666 ft | 147 kts | 185° |
| 2026-04-28 09:47 | 39.09209 | -84.66856 | 1452 ft | 149 kts | 183° |
| 2026-04-28 09:47 | 39.08162 | -84.66855 | 1224 ft | 149 kts | 182° |
| 2026-04-28 09:47 | 39.07115 | -84.66856 | 1010 ft | 152 kts | 182° |
| 2026-04-28 09:48 | 39.06042 | -84.66861 | 872 ft | 149 kts | 180° |
| 2026-04-28 09:48 | 39.05170 | -84.66867 | 879 ft | 94 kts | 180° |
| 2026-04-28 09:48 | 39.04673 | -84.66869 | 870 ft | 51 kts | 180° |
| 2026-04-28 09:48 | 39.04445 | -84.66863 | 864 ft | 19 kts | 171° |
| 2026-04-28 09:49 | 39.04361 | -84.66810 | 861 ft | 9 kts | 120° |
| 2026-04-28 09:49 | 39.04327 | -84.66737 | 860 ft | 9 kts | 152° |
| 2026-04-28 09:49 | 39.04254 | -84.66730 | 858 ft | 11 kts | 179° |
| 2026-04-28 09:49 | 39.04154 | -84.66730 | 855 ft | 16 kts | 180° |
| 2026-04-28 09:50 | 39.04021 | -84.66732 | 853 ft | 21 kts | 179° |
| 2026-04-28 09:50 | 39.03852 | -84.66733 | 850 ft | 26 kts | 180° |
| 2026-04-28 09:50 | 39.03663 | -84.66734 | 847 ft | 27 kts | 180° |
| 2026-04-28 09:50 | 39.03558 | -84.66734 | 846 ft | 10 kts | 175° |
| 2026-04-28 09:51 | 39.03511 | -84.66683 | 846 ft | 8 kts | 105° |
| 2026-04-28 09:51 | 39.03509 | -84.66609 | 847 ft | 8 kts | 90° |
| 2026-04-28 09:51 | 39.03509 | -84.66534 | 848 ft | 8 kts | 90° |
| 2026-04-28 09:51 | 39.03495 | -84.66470 | 848 ft | 5 kts | 128° |
| 2026-04-28 09:52 | 39.03457 | -84.66457 | 849 ft | 6 kts | 180° |
| 2026-04-28 09:52 | 39.03410 | -84.66457 | 849 ft | 7 kts | 181° |
| 2026-04-28 09:52 | 39.03370 | -84.66468 | 849 ft | 3 kts | 225° |
| 2026-04-28 09:52 | 39.03365 | -84.66509 | 849 ft | 6 kts | 269° |
| 2026-04-28 09:53 | 39.03365 | -84.66553 | 848 ft | 4 kts | 269° |
| 2026-04-28 09:53 | 39.03365 | -84.66557 | 848 ft | 0 kts | 269° |